sensor_id;sensor_type;location;lat;lon;timestamp;P1;durP1;ratioP1;P2;durP2;ratioP2
46753;SDS011;32500;50.620;3.400;2022-10-26T00:02:13;73.53;;;51.38;;
46753;SDS011;32500;50.620;3.400;2022-10-26T00:04:39;72.32;;;51.22;;
46753;SDS011;32500;50.620;3.400;2022-10-26T00:07:04;72.88;;;51.42;;
46753;SDS011;32500;50.620;3.400;2022-10-26T00:09:30;72.32;;;51.25;;
46753;SDS011;32500;50.620;3.400;2022-10-26T00:11:56;72.00;;;51.47;;
46753;SDS011;32500;50.620;3.400;2022-10-26T00:14:21;73.78;;;51.63;;
46753;SDS011;32500;50.620;3.400;2022-10-26T00:16:47;73.03;;;51.35;;
46753;SDS011;32500;50.620;3.400;2022-10-26T00:19:13;72.60;;;51.42;;
46753;SDS011;32500;50.620;3.400;2022-10-26T00:21:39;73.22;;;51.47;;
46753;SDS011;32500;50.620;3.400;2022-10-26T00:24:04;72.68;;;51.53;;
46753;SDS011;32500;50.620;3.400;2022-10-26T00:26:30;73.15;;;51.47;;
46753;SDS011;32500;50.620;3.400;2022-10-26T00:28:56;73.93;;;51.15;;
46753;SDS011;32500;50.620;3.400;2022-10-26T00:31:22;73.00;;;51.42;;
46753;SDS011;32500;50.620;3.400;2022-10-26T00:33:52;72.15;;;51.65;;
46753;SDS011;32500;50.620;3.400;2022-10-26T00:36:18;74.10;;;51.65;;
46753;SDS011;32500;50.620;3.400;2022-10-26T00:38:48;72.00;;;51.53;;
46753;SDS011;32500;50.620;3.400;2022-10-26T00:41:16;72.47;;;51.45;;
46753;SDS011;32500;50.620;3.400;2022-10-26T00:43:42;73.50;;;51.40;;
46753;SDS011;32500;50.620;3.400;2022-10-26T00:46:10;73.78;;;51.42;;
46753;SDS011;32500;50.620;3.400;2022-10-26T00:48:40;72.57;;;51.45;;
46753;SDS011;32500;50.620;3.400;2022-10-26T00:51:09;73.55;;;50.88;;
46753;SDS011;32500;50.620;3.400;2022-10-26T00:53:44;72.57;;;51.15;;
46753;SDS011;32500;50.620;3.400;2022-10-26T00:56:10;73.55;;;51.35;;
46753;SDS011;32500;50.620;3.400;2022-10-26T00:58:39;72.45;;;51.20;;
46753;SDS011;32500;50.620;3.400;2022-10-26T01:01:05;72.53;;;51.35;;
46753;SDS011;32500;50.620;3.400;2022-10-26T01:03:30;72.35;;;51.33;;
46753;SDS011;32500;50.620;3.400;2022-10-26T01:05:58;73.68;;;51.15;;
46753;SDS011;32500;50.620;3.400;2022-10-26T01:08:24;72.30;;;50.90;;
46753;SDS011;32500;50.620;3.400;2022-10-26T01:10:52;72.63;;;51.05;;
46753;SDS011;32500;50.620;3.400;2022-10-26T01:13:20;73.30;;;51.30;;
46753;SDS011;32500;50.620;3.400;2022-10-26T01:32:44;72.80;;;51.05;;
46753;SDS011;32500;50.620;3.400;2022-10-26T01:35:31;72.35;;;50.97;;
46753;SDS011;32500;50.620;3.400;2022-10-26T01:38:15;72.28;;;50.83;;
46753;SDS011;32500;50.620;3.400;2022-10-26T01:41:03;71.65;;;51.08;;
46753;SDS011;32500;50.620;3.400;2022-10-26T01:43:31;71.63;;;51.08;;
46753;SDS011;32500;50.620;3.400;2022-10-26T01:46:01;71.80;;;51.10;;
46753;SDS011;32500;50.620;3.400;2022-10-26T01:48:28;71.70;;;50.90;;
46753;SDS011;32500;50.620;3.400;2022-10-26T01:50:54;72.05;;;51.47;;
46753;SDS011;32500;50.620;3.400;2022-10-26T01:53:22;73.07;;;51.55;;
46753;SDS011;32500;50.620;3.400;2022-10-26T01:55:51;71.43;;;50.88;;
46753;SDS011;32500;50.620;3.400;2022-10-26T02:10:13;72.95;;;51.25;;
46753;SDS011;32500;50.620;3.400;2022-10-26T02:18:49;71.88;;;50.92;;
46753;SDS011;32500;50.620;3.400;2022-10-26T02:21:32;71.97;;;50.83;;
46753;SDS011;32500;50.620;3.400;2022-10-26T02:24:05;73.50;;;51.25;;
46753;SDS011;32500;50.620;3.400;2022-10-26T02:26:34;72.47;;;51.10;;
46753;SDS011;32500;50.620;3.400;2022-10-26T02:29:02;72.63;;;51.10;;
46753;SDS011;32500;50.620;3.400;2022-10-26T02:31:31;71.83;;;50.87;;
46753;SDS011;32500;50.620;3.400;2022-10-26T02:34:01;72.68;;;50.85;;
46753;SDS011;32500;50.620;3.400;2022-10-26T02:36:31;72.55;;;51.40;;
46753;SDS011;32500;50.620;3.400;2022-10-26T02:39:02;72.32;;;51.17;;
46753;SDS011;32500;50.620;3.400;2022-10-26T02:41:29;72.38;;;50.95;;
46753;SDS011;32500;50.620;3.400;2022-10-26T02:43:59;71.82;;;50.92;;
46753;SDS011;32500;50.620;3.400;2022-10-26T02:46:37;71.60;;;51.10;;
46753;SDS011;32500;50.620;3.400;2022-10-26T02:49:03;71.70;;;51.35;;
46753;SDS011;32500;50.620;3.400;2022-10-26T02:51:33;71.95;;;50.90;;
46753;SDS011;32500;50.620;3.400;2022-10-26T02:57:15;72.07;;;51.30;;
46753;SDS011;32500;50.620;3.400;2022-10-26T02:59:50;72.65;;;51.15;;
46753;SDS011;32500;50.620;3.400;2022-10-26T03:02:18;71.28;;;50.63;;
46753;SDS011;32500;50.620;3.400;2022-10-26T03:04:44;73.45;;;51.25;;
46753;SDS011;32500;50.620;3.400;2022-10-26T03:07:11;72.47;;;51.72;;
46753;SDS011;32500;50.620;3.400;2022-10-26T03:09:37;72.57;;;51.22;;
46753;SDS011;32500;50.620;3.400;2022-10-26T03:12:02;72.43;;;51.13;;
46753;SDS011;32500;50.620;3.400;2022-10-26T03:14:28;71.60;;;50.92;;
46753;SDS011;32500;50.620;3.400;2022-10-26T03:16:54;72.70;;;51.05;;
46753;SDS011;32500;50.620;3.400;2022-10-26T03:19:19;71.90;;;50.92;;
46753;SDS011;32500;50.620;3.400;2022-10-26T03:21:45;71.75;;;50.95;;
46753;SDS011;32500;50.620;3.400;2022-10-26T03:24:11;71.45;;;50.95;;
46753;SDS011;32500;50.620;3.400;2022-10-26T03:26:36;71.43;;;50.92;;
46753;SDS011;32500;50.620;3.400;2022-10-26T03:29:02;71.57;;;50.95;;
46753;SDS011;32500;50.620;3.400;2022-10-26T03:31:28;71.05;;;51.00;;
46753;SDS011;32500;50.620;3.400;2022-10-26T03:33:54;71.57;;;50.97;;
46753;SDS011;32500;50.620;3.400;2022-10-26T03:36:19;72.28;;;51.05;;
46753;SDS011;32500;50.620;3.400;2022-10-26T03:38:45;71.88;;;51.20;;
46753;SDS011;32500;50.620;3.400;2022-10-26T03:41:10;71.60;;;50.97;;
46753;SDS011;32500;50.620;3.400;2022-10-26T03:43:36;71.78;;;51.10;;
46753;SDS011;32500;50.620;3.400;2022-10-26T03:46:02;70.95;;;50.88;;
46753;SDS011;32500;50.620;3.400;2022-10-26T03:48:27;71.85;;;51.05;;
46753;SDS011;32500;50.620;3.400;2022-10-26T03:50:56;71.72;;;51.05;;
46753;SDS011;32500;50.620;3.400;2022-10-26T03:53:23;72.38;;;50.72;;
46753;SDS011;32500;50.620;3.400;2022-10-26T03:55:49;73.05;;;50.92;;
46753;SDS011;32500;50.620;3.400;2022-10-26T03:58:14;71.43;;;51.03;;
46753;SDS011;32500;50.620;3.400;2022-10-26T04:00:40;71.82;;;50.75;;
46753;SDS011;32500;50.620;3.400;2022-10-26T04:03:06;71.05;;;50.83;;
46753;SDS011;32500;50.620;3.400;2022-10-26T04:05:31;71.50;;;50.70;;
46753;SDS011;32500;50.620;3.400;2022-10-26T04:07:58;71.88;;;51.65;;
46753;SDS011;32500;50.620;3.400;2022-10-26T04:10:25;71.65;;;50.88;;
46753;SDS011;32500;50.620;3.400;2022-10-26T04:12:52;72.38;;;50.72;;
46753;SDS011;32500;50.620;3.400;2022-10-26T04:15:18;72.15;;;51.13;;
46753;SDS011;32500;50.620;3.400;2022-10-26T04:17:45;71.57;;;50.90;;
46753;SDS011;32500;50.620;3.400;2022-10-26T04:20:10;72.15;;;50.90;;
46753;SDS011;32500;50.620;3.400;2022-10-26T04:22:37;71.82;;;51.30;;
46753;SDS011;32500;50.620;3.400;2022-10-26T04:25:03;76.22;;;51.05;;
46753;SDS011;32500;50.620;3.400;2022-10-26T04:27:29;74.45;;;50.85;;
46753;SDS011;32500;50.620;3.400;2022-10-26T04:29:55;72.97;;;51.22;;
46753;SDS011;32500;50.620;3.400;2022-10-26T04:32:21;73.82;;;51.33;;
46753;SDS011;32500;50.620;3.400;2022-10-26T04:34:47;71.53;;;51.15;;
46753;SDS011;32500;50.620;3.400;2022-10-26T04:37:12;72.28;;;51.13;;
46753;SDS011;32500;50.620;3.400;2022-10-26T04:39:38;71.32;;;51.10;;
46753;SDS011;32500;50.620;3.400;2022-10-26T04:42:03;72.18;;;50.92;;
46753;SDS011;32500;50.620;3.400;2022-10-26T04:44:29;73.15;;;51.05;;
46753;SDS011;32500;50.620;3.400;2022-10-26T04:46:55;74.90;;;51.15;;
46753;SDS011;32500;50.620;3.400;2022-10-26T04:49:20;73.47;;;51.00;;
46753;SDS011;32500;50.620;3.400;2022-10-26T04:51:46;72.93;;;51.00;;
46753;SDS011;32500;50.620;3.400;2022-10-26T04:54:11;74.80;;;51.08;;
46753;SDS011;32500;50.620;3.400;2022-10-26T04:56:37;71.50;;;50.65;;
46753;SDS011;32500;50.620;3.400;2022-10-26T04:59:03;72.70;;;51.00;;
46753;SDS011;32500;50.620;3.400;2022-10-26T05:01:29;72.63;;;51.15;;
46753;SDS011;32500;50.620;3.400;2022-10-26T05:03:55;73.35;;;50.90;;
46753;SDS011;32500;50.620;3.400;2022-10-26T05:06:21;71.85;;;50.67;;
46753;SDS011;32500;50.620;3.400;2022-10-26T05:08:47;73.15;;;51.05;;
46753;SDS011;32500;50.620;3.400;2022-10-26T05:11:13;72.45;;;50.97;;
46753;SDS011;32500;50.620;3.400;2022-10-26T05:13:39;71.57;;;50.72;;
46753;SDS011;32500;50.620;3.400;2022-10-26T05:16:05;71.18;;;50.83;;
46753;SDS011;32500;50.620;3.400;2022-10-26T05:18:31;72.78;;;51.33;;
46753;SDS011;32500;50.620;3.400;2022-10-26T05:20:56;76.55;;;50.90;;
46753;SDS011;32500;50.620;3.400;2022-10-26T05:23:22;73.28;;;50.85;;
46753;SDS011;32500;50.620;3.400;2022-10-26T05:25:48;74.80;;;51.45;;
46753;SDS011;32500;50.620;3.400;2022-10-26T05:28:15;73.30;;;50.83;;
46753;SDS011;32500;50.620;3.400;2022-10-26T05:30:42;75.15;;;51.05;;
46753;SDS011;32500;50.620;3.400;2022-10-26T05:33:09;72.15;;;51.00;;
46753;SDS011;32500;50.620;3.400;2022-10-26T05:35:35;78.82;;;50.95;;
46753;SDS011;32500;50.620;3.400;2022-10-26T05:38:08;74.97;;;51.45;;
46753;SDS011;32500;50.620;3.400;2022-10-26T05:40:35;73.28;;;51.25;;
46753;SDS011;32500;50.620;3.400;2022-10-26T05:43:01;76.85;;;51.53;;
46753;SDS011;32500;50.620;3.400;2022-10-26T05:45:27;76.10;;;51.35;;
46753;SDS011;32500;50.620;3.400;2022-10-26T05:47:53;75.03;;;51.00;;
46753;SDS011;32500;50.620;3.400;2022-10-26T05:50:18;73.18;;;50.85;;
46753;SDS011;32500;50.620;3.400;2022-10-26T05:52:45;74.40;;;51.50;;
46753;SDS011;32500;50.620;3.400;2022-10-26T05:55:13;73.15;;;51.35;;
46753;SDS011;32500;50.620;3.400;2022-10-26T05:57:40;73.82;;;51.67;;
46753;SDS011;32500;50.620;3.400;2022-10-26T06:00:07;74.78;;;51.30;;
46753;SDS011;32500;50.620;3.400;2022-10-26T06:05:33;71.95;;;51.10;;
46753;SDS011;32500;50.620;3.400;2022-10-26T06:08:09;75.07;;;51.28;;
46753;SDS011;32500;50.620;3.400;2022-10-26T06:10:36;73.97;;;51.40;;
46753;SDS011;32500;50.620;3.400;2022-10-26T06:13:02;72.28;;;51.33;;
46753;SDS011;32500;50.620;3.400;2022-10-26T06:15:28;76.20;;;51.28;;
46753;SDS011;32500;50.620;3.400;2022-10-26T06:18:33;71.28;;;51.08;;
46753;SDS011;32500;50.620;3.400;2022-10-26T06:24:05;73.38;;;50.90;;
46753;SDS011;32500;50.620;3.400;2022-10-26T06:31:42;74.50;;;51.90;;
46753;SDS011;32500;50.620;3.400;2022-10-26T06:34:09;71.10;;;50.80;;
46753;SDS011;32500;50.620;3.400;2022-10-26T06:36:38;72.18;;;51.17;;
46753;SDS011;32500;50.620;3.400;2022-10-26T06:39:06;72.75;;;51.30;;
46753;SDS011;32500;50.620;3.400;2022-10-26T06:41:34;71.90;;;51.22;;
46753;SDS011;32500;50.620;3.400;2022-10-26T06:44:01;72.70;;;51.17;;
46753;SDS011;32500;50.620;3.400;2022-10-26T06:46:47;72.72;;;51.25;;
46753;SDS011;32500;50.620;3.400;2022-10-26T06:52:34;73.45;;;50.92;;
46753;SDS011;32500;50.620;3.400;2022-10-26T06:55:11;71.88;;;51.08;;
46753;SDS011;32500;50.620;3.400;2022-10-26T06:57:38;73.03;;;50.88;;
46753;SDS011;32500;50.620;3.400;2022-10-26T07:00:07;74.13;;;51.75;;
46753;SDS011;32500;50.620;3.400;2022-10-26T07:02:41;71.55;;;51.05;;
46753;SDS011;32500;50.620;3.400;2022-10-26T07:05:06;73.40;;;51.00;;
46753;SDS011;32500;50.620;3.400;2022-10-26T07:07:36;72.88;;;51.35;;
46753;SDS011;32500;50.620;3.400;2022-10-26T07:10:06;72.20;;;50.92;;
46753;SDS011;32500;50.620;3.400;2022-10-26T07:12:32;73.78;;;51.35;;
46753;SDS011;32500;50.620;3.400;2022-10-26T07:14:58;74.05;;;51.08;;
46753;SDS011;32500;50.620;3.400;2022-10-26T07:17:24;72.03;;;51.13;;
46753;SDS011;32500;50.620;3.400;2022-10-26T07:19:52;71.75;;;50.80;;
46753;SDS011;32500;50.620;3.400;2022-10-26T07:22:18;71.72;;;51.03;;
46753;SDS011;32500;50.620;3.400;2022-10-26T07:24:44;71.60;;;51.15;;
46753;SDS011;32500;50.620;3.400;2022-10-26T07:27:13;71.75;;;51.00;;
46753;SDS011;32500;50.620;3.400;2022-10-26T07:29:39;74.82;;;51.33;;
46753;SDS011;32500;50.620;3.400;2022-10-26T07:32:05;72.68;;;50.95;;
46753;SDS011;32500;50.620;3.400;2022-10-26T07:34:31;72.00;;;51.03;;
46753;SDS011;32500;50.620;3.400;2022-10-26T07:36:58;71.22;;;51.05;;
46753;SDS011;32500;50.620;3.400;2022-10-26T07:39:23;72.22;;;50.97;;
46753;SDS011;32500;50.620;3.400;2022-10-26T07:41:49;72.85;;;51.05;;
46753;SDS011;32500;50.620;3.400;2022-10-26T07:44:15;71.32;;;50.95;;
46753;SDS011;32500;50.620;3.400;2022-10-26T07:46:41;73.07;;;51.10;;
46753;SDS011;32500;50.620;3.400;2022-10-26T07:49:06;72.22;;;50.65;;
46753;SDS011;32500;50.620;3.400;2022-10-26T07:51:32;72.65;;;51.30;;
46753;SDS011;32500;50.620;3.400;2022-10-26T07:53:58;72.00;;;51.33;;
46753;SDS011;32500;50.620;3.400;2022-10-26T07:56:23;70.80;;;50.58;;
46753;SDS011;32500;50.620;3.400;2022-10-26T07:58:51;71.93;;;51.17;;
46753;SDS011;32500;50.620;3.400;2022-10-26T08:01:17;71.70;;;50.95;;
46753;SDS011;32500;50.620;3.400;2022-10-26T08:03:43;71.45;;;50.75;;
46753;SDS011;32500;50.620;3.400;2022-10-26T08:06:09;72.28;;;50.85;;
46753;SDS011;32500;50.620;3.400;2022-10-26T08:08:35;71.65;;;51.05;;
46753;SDS011;32500;50.620;3.400;2022-10-26T08:11:01;72.22;;;51.28;;
46753;SDS011;32500;50.620;3.400;2022-10-26T08:13:27;71.63;;;51.33;;
46753;SDS011;32500;50.620;3.400;2022-10-26T08:15:59;72.95;;;51.08;;
46753;SDS011;32500;50.620;3.400;2022-10-26T08:18:26;73.78;;;51.05;;
46753;SDS011;32500;50.620;3.400;2022-10-26T08:20:52;73.47;;;51.25;;
46753;SDS011;32500;50.620;3.400;2022-10-26T08:23:18;73.30;;;51.15;;
46753;SDS011;32500;50.620;3.400;2022-10-26T08:25:43;72.07;;;50.63;;
46753;SDS011;32500;50.620;3.400;2022-10-26T08:28:09;88.13;;;55.17;;
46753;SDS011;32500;50.620;3.400;2022-10-26T08:30:35;83.43;;;54.33;;
46753;SDS011;32500;50.620;3.400;2022-10-26T08:33:01;80.97;;;54.10;;
46753;SDS011;32500;50.620;3.400;2022-10-26T08:35:31;82.70;;;53.47;;
46753;SDS011;32500;50.620;3.400;2022-10-26T08:37:56;80.53;;;53.75;;
46753;SDS011;32500;50.620;3.400;2022-10-26T08:40:26;82.68;;;54.30;;
46753;SDS011;32500;50.620;3.400;2022-10-26T08:43:01;77.22;;;53.67;;
46753;SDS011;32500;50.620;3.400;2022-10-26T08:45:50;80.05;;;54.13;;
46753;SDS011;32500;50.620;3.400;2022-10-26T08:48:24;82.07;;;53.63;;
46753;SDS011;32500;50.620;3.400;2022-10-26T08:50:56;79.22;;;53.45;;
46753;SDS011;32500;50.620;3.400;2022-10-26T08:53:36;83.15;;;53.95;;
46753;SDS011;32500;50.620;3.400;2022-10-26T08:56:27;81.10;;;53.60;;
46753;SDS011;32500;50.620;3.400;2022-10-26T08:59:04;79.05;;;53.15;;
46753;SDS011;32500;50.620;3.400;2022-10-26T09:01:37;80.57;;;52.97;;
46753;SDS011;32500;50.620;3.400;2022-10-26T09:04:05;75.78;;;53.05;;
46753;SDS011;32500;50.620;3.400;2022-10-26T09:09:26;75.40;;;53.00;;
46753;SDS011;32500;50.620;3.400;2022-10-26T09:20:14;77.10;;;53.00;;
46753;SDS011;32500;50.620;3.400;2022-10-26T09:23:33;77.45;;;52.67;;
46753;SDS011;32500;50.620;3.400;2022-10-26T09:26:01;76.07;;;53.03;;
46753;SDS011;32500;50.620;3.400;2022-10-26T09:28:30;78.38;;;52.72;;
46753;SDS011;32500;50.620;3.400;2022-10-26T09:30:59;77.75;;;52.85;;
46753;SDS011;32500;50.620;3.400;2022-10-26T09:33:26;75.70;;;52.35;;
46753;SDS011;32500;50.620;3.400;2022-10-26T09:36:01;76.22;;;52.60;;
46753;SDS011;32500;50.620;3.400;2022-10-26T09:38:42;79.70;;;53.05;;
46753;SDS011;32500;50.620;3.400;2022-10-26T09:46:54;75.22;;;52.55;;
46753;SDS011;32500;50.620;3.400;2022-10-26T09:49:43;77.57;;;52.90;;
46753;SDS011;32500;50.620;3.400;2022-10-26T09:52:15;76.47;;;52.83;;
46753;SDS011;32500;50.620;3.400;2022-10-26T09:54:41;77.32;;;52.63;;
46753;SDS011;32500;50.620;3.400;2022-10-26T09:57:07;77.63;;;52.42;;
46753;SDS011;32500;50.620;3.400;2022-10-26T09:59:37;76.82;;;52.45;;
46753;SDS011;32500;50.620;3.400;2022-10-26T10:04:59;77.78;;;52.92;;
46753;SDS011;32500;50.620;3.400;2022-10-26T10:07:26;77.68;;;52.88;;
46753;SDS011;32500;50.620;3.400;2022-10-26T10:12:41;75.38;;;52.28;;
46753;SDS011;32500;50.620;3.400;2022-10-26T10:15:23;78.07;;;52.55;;
46753;SDS011;32500;50.620;3.400;2022-10-26T10:17:49;77.18;;;52.60;;
46753;SDS011;32500;50.620;3.400;2022-10-26T10:20:18;80.07;;;52.78;;
46753;SDS011;32500;50.620;3.400;2022-10-26T10:22:57;77.03;;;52.58;;
46753;SDS011;32500;50.620;3.400;2022-10-26T10:25:32;77.57;;;52.92;;
46753;SDS011;32500;50.620;3.400;2022-10-26T10:28:02;74.95;;;52.42;;
46753;SDS011;32500;50.620;3.400;2022-10-26T10:30:57;75.55;;;52.35;;
46753;SDS011;32500;50.620;3.400;2022-10-26T10:33:32;78.90;;;52.72;;
46753;SDS011;32500;50.620;3.400;2022-10-26T10:36:01;77.22;;;52.72;;
46753;SDS011;32500;50.620;3.400;2022-10-26T10:38:30;75.65;;;52.25;;
46753;SDS011;32500;50.620;3.400;2022-10-26T10:41:49;75.68;;;52.03;;
46753;SDS011;32500;50.620;3.400;2022-10-26T10:44:04;75.68;;;52.60;;
46753;SDS011;32500;50.620;3.400;2022-10-26T10:47:03;75.22;;;52.22;;
46753;SDS011;32500;50.620;3.400;2022-10-26T10:49:31;74.97;;;52.13;;
46753;SDS011;32500;50.620;3.400;2022-10-26T10:51:58;76.75;;;52.63;;
46753;SDS011;32500;50.620;3.400;2022-10-26T10:54:36;76.53;;;52.85;;
46753;SDS011;32500;50.620;3.400;2022-10-26T11:05:28;75.40;;;52.50;;
46753;SDS011;32500;50.620;3.400;2022-10-26T11:08:08;77.50;;;52.63;;
46753;SDS011;32500;50.620;3.400;2022-10-26T11:10:38;76.63;;;52.67;;
46753;SDS011;32500;50.620;3.400;2022-10-26T11:13:30;76.17;;;52.70;;
46753;SDS011;32500;50.620;3.400;2022-10-26T11:16:11;76.57;;;52.10;;
46753;SDS011;32500;50.620;3.400;2022-10-26T11:18:42;75.30;;;52.70;;
46753;SDS011;32500;50.620;3.400;2022-10-26T11:24:12;76.00;;;52.65;;
46753;SDS011;32500;50.620;3.400;2022-10-26T11:26:56;76.50;;;52.55;;
46753;SDS011;32500;50.620;3.400;2022-10-26T11:29:42;77.07;;;52.63;;
46753;SDS011;32500;50.620;3.400;2022-10-26T11:32:22;76.28;;;52.55;;
46753;SDS011;32500;50.620;3.400;2022-10-26T11:34:54;79.75;;;52.72;;
46753;SDS011;32500;50.620;3.400;2022-10-26T11:40:13;76.05;;;52.15;;
46753;SDS011;32500;50.620;3.400;2022-10-26T11:43:02;75.22;;;52.53;;
46753;SDS011;32500;50.620;3.400;2022-10-26T11:45:43;76.22;;;52.65;;
46753;SDS011;32500;50.620;3.400;2022-10-26T11:48:17;75.80;;;52.25;;
46753;SDS011;32500;50.620;3.400;2022-10-26T11:50:52;75.35;;;52.50;;
46753;SDS011;32500;50.620;3.400;2022-10-26T11:53:32;77.45;;;52.53;;
46753;SDS011;32500;50.620;3.400;2022-10-26T11:56:03;75.65;;;52.22;;
46753;SDS011;32500;50.620;3.400;2022-10-26T11:58:36;78.00;;;52.50;;
46753;SDS011;32500;50.620;3.400;2022-10-26T12:01:03;77.43;;;52.47;;
46753;SDS011;32500;50.620;3.400;2022-10-26T12:06:09;75.47;;;52.15;;
46753;SDS011;32500;50.620;3.400;2022-10-26T12:08:40;77.95;;;52.05;;
46753;SDS011;32500;50.620;3.400;2022-10-26T12:14:13;77.07;;;52.15;;
46753;SDS011;32500;50.620;3.400;2022-10-26T12:17:17;77.97;;;52.10;;
46753;SDS011;32500;50.620;3.400;2022-10-26T12:20:06;75.78;;;52.25;;
46753;SDS011;32500;50.620;3.400;2022-10-26T12:22:37;75.60;;;52.42;;
46753;SDS011;32500;50.620;3.400;2022-10-26T12:35:47;77.30;;;52.05;;
46753;SDS011;32500;50.620;3.400;2022-10-26T12:40:48;77.82;;;52.45;;
46753;SDS011;32500;50.620;3.400;2022-10-26T12:48:40;77.60;;;52.37;;
46753;SDS011;32500;50.620;3.400;2022-10-26T12:57:05;75.10;;;51.92;;
46753;SDS011;32500;50.620;3.400;2022-10-26T12:59:48;77.93;;;51.83;;
46753;SDS011;32500;50.620;3.400;2022-10-26T13:07:43;77.05;;;52.35;;
46753;SDS011;32500;50.620;3.400;2022-10-26T13:12:46;77.57;;;52.63;;
46753;SDS011;32500;50.620;3.400;2022-10-26T13:15:23;75.60;;;52.65;;
46753;SDS011;32500;50.620;3.400;2022-10-26T13:20:23;75.70;;;52.70;;
46753;SDS011;32500;50.620;3.400;2022-10-26T13:22:49;76.90;;;52.38;;
46753;SDS011;32500;50.620;3.400;2022-10-26T13:25:22;75.63;;;52.25;;
46753;SDS011;32500;50.620;3.400;2022-10-26T13:30:51;77.40;;;52.45;;
46753;SDS011;32500;50.620;3.400;2022-10-26T13:33:19;78.93;;;52.92;;
46753;SDS011;32500;50.620;3.400;2022-10-26T13:35:51;76.18;;;52.17;;
46753;SDS011;32500;50.620;3.400;2022-10-26T13:38:20;76.60;;;52.15;;
46753;SDS011;32500;50.620;3.400;2022-10-26T13:40:47;77.00;;;52.38;;
46753;SDS011;32500;50.620;3.400;2022-10-26T13:43:20;77.90;;;52.45;;
46753;SDS011;32500;50.620;3.400;2022-10-26T13:45:49;75.53;;;52.22;;
46753;SDS011;32500;50.620;3.400;2022-10-26T13:48:40;76.22;;;52.40;;
46753;SDS011;32500;50.620;3.400;2022-10-26T13:51:10;75.50;;;52.17;;
46753;SDS011;32500;50.620;3.400;2022-10-26T13:53:53;79.25;;;52.80;;
46753;SDS011;32500;50.620;3.400;2022-10-26T13:56:36;77.95;;;52.35;;
46753;SDS011;32500;50.620;3.400;2022-10-26T14:01:37;77.28;;;52.75;;
46753;SDS011;32500;50.620;3.400;2022-10-26T14:04:15;77.30;;;52.22;;
46753;SDS011;32500;50.620;3.400;2022-10-26T14:06:51;77.03;;;52.67;;
46753;SDS011;32500;50.620;3.400;2022-10-26T14:09:19;76.72;;;52.58;;
46753;SDS011;32500;50.620;3.400;2022-10-26T14:11:47;76.60;;;52.65;;
46753;SDS011;32500;50.620;3.400;2022-10-26T14:14:17;77.73;;;52.70;;
46753;SDS011;32500;50.620;3.400;2022-10-26T14:16:46;76.37;;;52.67;;
46753;SDS011;32500;50.620;3.400;2022-10-26T14:19:26;77.07;;;52.65;;
46753;SDS011;32500;50.620;3.400;2022-10-26T14:21:54;79.03;;;52.53;;
46753;SDS011;32500;50.620;3.400;2022-10-26T14:24:49;76.97;;;52.58;;
46753;SDS011;32500;50.620;3.400;2022-10-26T14:27:17;76.30;;;52.42;;
46753;SDS011;32500;50.620;3.400;2022-10-26T14:29:45;76.47;;;52.53;;
46753;SDS011;32500;50.620;3.400;2022-10-26T14:34:53;77.90;;;52.45;;
46753;SDS011;32500;50.620;3.400;2022-10-26T14:37:23;76.47;;;52.53;;
46753;SDS011;32500;50.620;3.400;2022-10-26T14:39:49;76.03;;;52.65;;
46753;SDS011;32500;50.620;3.400;2022-10-26T14:45:27;77.43;;;52.65;;
46753;SDS011;32500;50.620;3.400;2022-10-26T14:47:59;76.68;;;52.40;;
46753;SDS011;32500;50.620;3.400;2022-10-26T14:50:26;77.13;;;52.70;;
46753;SDS011;32500;50.620;3.400;2022-10-26T14:53:12;76.57;;;52.35;;
46753;SDS011;32500;50.620;3.400;2022-10-26T14:55:44;75.63;;;52.33;;
46753;SDS011;32500;50.620;3.400;2022-10-26T14:58:21;76.63;;;52.58;;
46753;SDS011;32500;50.620;3.400;2022-10-26T15:03:56;76.80;;;52.28;;
46753;SDS011;32500;50.620;3.400;2022-10-26T15:06:28;79.05;;;52.53;;
46753;SDS011;32500;50.620;3.400;2022-10-26T15:09:27;77.07;;;52.63;;
46753;SDS011;32500;50.620;3.400;2022-10-26T15:12:19;75.78;;;52.20;;
46753;SDS011;32500;50.620;3.400;2022-10-26T15:14:55;76.15;;;52.25;;
46753;SDS011;32500;50.620;3.400;2022-10-26T15:17:29;77.38;;;52.60;;
46753;SDS011;32500;50.620;3.400;2022-10-26T15:20:02;77.43;;;52.30;;
46753;SDS011;32500;50.620;3.400;2022-10-26T15:22:30;76.30;;;52.35;;
46753;SDS011;32500;50.620;3.400;2022-10-26T15:24:56;77.88;;;52.70;;
46753;SDS011;32500;50.620;3.400;2022-10-26T15:27:24;76.20;;;52.35;;
46753;SDS011;32500;50.620;3.400;2022-10-26T15:29:51;75.47;;;52.33;;
46753;SDS011;32500;50.620;3.400;2022-10-26T15:32:31;76.05;;;52.03;;
46753;SDS011;32500;50.620;3.400;2022-10-26T15:37:41;76.55;;;52.15;;
46753;SDS011;32500;50.620;3.400;2022-10-26T15:40:07;76.82;;;52.63;;
46753;SDS011;32500;50.620;3.400;2022-10-26T15:42:37;78.97;;;52.15;;
46753;SDS011;32500;50.620;3.400;2022-10-26T15:45:05;79.13;;;52.55;;
46753;SDS011;32500;50.620;3.400;2022-10-26T15:47:48;78.50;;;52.55;;
46753;SDS011;32500;50.620;3.400;2022-10-26T15:50:20;77.18;;;52.78;;
46753;SDS011;32500;50.620;3.400;2022-10-26T15:52:48;77.03;;;52.30;;
46753;SDS011;32500;50.620;3.400;2022-10-26T15:55:14;76.40;;;52.35;;
46753;SDS011;32500;50.620;3.400;2022-10-26T15:57:41;79.22;;;52.35;;
46753;SDS011;32500;50.620;3.400;2022-10-26T16:00:09;79.57;;;52.67;;
46753;SDS011;32500;50.620;3.400;2022-10-26T16:02:39;81.30;;;52.75;;
46753;SDS011;32500;50.620;3.400;2022-10-26T16:05:07;78.00;;;52.65;;
46753;SDS011;32500;50.620;3.400;2022-10-26T16:07:33;80.32;;;52.58;;
46753;SDS011;32500;50.620;3.400;2022-10-26T16:09:59;77.60;;;52.55;;
46753;SDS011;32500;50.620;3.400;2022-10-26T16:12:25;78.90;;;52.40;;
46753;SDS011;32500;50.620;3.400;2022-10-26T16:14:50;78.38;;;52.80;;
46753;SDS011;32500;50.620;3.400;2022-10-26T16:17:16;77.13;;;52.13;;
46753;SDS011;32500;50.620;3.400;2022-10-26T16:19:42;78.80;;;53.92;;
46753;SDS011;32500;50.620;3.400;2022-10-26T16:22:10;76.57;;;52.50;;
46753;SDS011;32500;50.620;3.400;2022-10-26T16:24:36;77.65;;;52.75;;
46753;SDS011;32500;50.620;3.400;2022-10-26T16:27:02;75.72;;;52.60;;
46753;SDS011;32500;50.620;3.400;2022-10-26T16:29:28;77.55;;;52.35;;
46753;SDS011;32500;50.620;3.400;2022-10-26T16:31:54;77.10;;;52.03;;
46753;SDS011;32500;50.620;3.400;2022-10-26T16:34:21;77.78;;;52.45;;
46753;SDS011;32500;50.620;3.400;2022-10-26T16:36:47;76.85;;;52.17;;
46753;SDS011;32500;50.620;3.400;2022-10-26T16:39:13;75.95;;;52.05;;
46753;SDS011;32500;50.620;3.400;2022-10-26T16:41:39;75.25;;;52.10;;
46753;SDS011;32500;50.620;3.400;2022-10-26T16:44:05;76.38;;;52.15;;
46753;SDS011;32500;50.620;3.400;2022-10-26T16:46:31;77.03;;;52.22;;
46753;SDS011;32500;50.620;3.400;2022-10-26T16:48:59;77.75;;;52.38;;
46753;SDS011;32500;50.620;3.400;2022-10-26T16:51:25;78.32;;;52.60;;
46753;SDS011;32500;50.620;3.400;2022-10-26T16:53:53;75.85;;;52.00;;
46753;SDS011;32500;50.620;3.400;2022-10-26T16:56:21;76.90;;;52.13;;
46753;SDS011;32500;50.620;3.400;2022-10-26T16:58:48;78.80;;;52.22;;
46753;SDS011;32500;50.620;3.400;2022-10-26T17:01:14;76.10;;;52.53;;
46753;SDS011;32500;50.620;3.400;2022-10-26T17:03:44;75.00;;;51.97;;
46753;SDS011;32500;50.620;3.400;2022-10-26T17:06:11;79.05;;;52.30;;